MSC Mara — V7NF9 — position and weather

sailwx.info

Track history (hours):
 
Tides and Currents Weather Stations Pressure Air Temp Water Temp Dewpoint Dewpoint Depression Visibility Wind Speed Wind Dir Waves Ship Positions

MSC Mara

Last reported at 2016-Nov-27 01:32 UTC. Time now 2016-Dec-09 02:05 UTC.
Position S 27°03' E 153°16'.
Warning: this ship's position is 12 days out of date.

Length 244 m; draft 11.6 m.

Type: Ship (hazmat cat C). MMSI: 538002955.

Date/timePositionNaut miles runAvg speedWind from/ knotsBaromVisibWave heightAir tempDewpointWater temp
2016-Nov-27 01:32S 27°03' E 153°16'1413.4
2016-Nov-27 00:28S 27°17' E 153°14'7 0.4
2016-Nov-26 06:30S 27°22' E 153°10'0 0.0
2016-Nov-25 13:19S 27°22' E 153°10'3 4.5
2016-Nov-25 12:33S 27°19' E 153°12'1513.8
2016-Nov-25 11:27S 27°05' E 153°19'  
2016-Nov-21 23:21S 36°06' E 150°46'2815.6
2016-Nov-21 21:33S 36°33' E 150°37'6115.2
2016-Nov-21 17:33S 37°31' E 150°17'4515.0
2016-Nov-21 14:33S 38°01' E 149°34'1515.3
2016-Nov-21 13:33S 38°10' E 149°18'12815.5
2016-Nov-21 05:15S 39°11' E 146°53'1115.3
2016-Nov-21 04:33S 39°15' E 146°40'3114.6
2016-Nov-21 02:23S 39°12' E 145°60'5 0.1
2016-Nov-19 00:20S 39°10' E 146°06'1214.8
2016-Nov-18 23:33S 39°11' E 146°21'16915.1
2016-Nov-18 12:21S 37°56' E 149°34'1316.0
2016-Nov-18 11:33S 37°49' E 149°47'3015.1
2016-Nov-18 09:33S 37°28' E 150°15'3215.9
2016-Nov-18 07:33S 36°59' E 150°31'3216.0
2016-Nov-18 05:33S 36°29' E 150°46'  
Track history (hours):
 
Tides and Currents Weather Stations Pressure Air Temp Water Temp Dewpoint Dewpoint Depression Visibility Wind Speed Wind Dir Waves Ship Positions

MSC Mara

Last reported at 2016-Nov-27 01:32 UTC. Time now 2016-Dec-09 02:05 UTC.
Position S 27°03' E 153°16'.
Warning: this ship's position is 12 days out of date.

Length 244 m; draft 11.6 m.

Type: Ship (hazmat cat C). MMSI: 538002955.

Date/timePositionNaut miles runAvg speedWind from/ knotsBaromVisibWave heightAir tempDewpointWater temp
2016-Nov-27 01:32S 27°03' E 153°16'1413.4
2016-Nov-27 00:28S 27°17' E 153°14'7 0.4
2016-Nov-26 06:30S 27°22' E 153°10'0 0.0
2016-Nov-25 13:19S 27°22' E 153°10'3 4.5
2016-Nov-25 12:33S 27°19' E 153°12'1513.8
2016-Nov-25 11:27S 27°05' E 153°19'  
2016-Nov-21 23:21S 36°06' E 150°46'2815.6
2016-Nov-21 21:33S 36°33' E 150°37'6115.2
2016-Nov-21 17:33S 37°31' E 150°17'4515.0
2016-Nov-21 14:33S 38°01' E 149°34'1515.3
2016-Nov-21 13:33S 38°10' E 149°18'12815.5
2016-Nov-21 05:15S 39°11' E 146°53'1115.3
2016-Nov-21 04:33S 39°15' E 146°40'3114.6
2016-Nov-21 02:23S 39°12' E 145°60'5 0.1
2016-Nov-19 00:20S 39°10' E 146°06'1214.8
2016-Nov-18 23:33S 39°11' E 146°21'16915.1
2016-Nov-18 12:21S 37°56' E 149°34'1316.0
2016-Nov-18 11:33S 37°49' E 149°47'3015.1
2016-Nov-18 09:33S 37°28' E 150°15'3215.9
2016-Nov-18 07:33S 36°59' E 150°31'3216.0
2016-Nov-18 05:33S 36°29' E 150°46'  

Dump ship's entire track history